Hunters Hill, Australia
Current Conditions -  °F | °C
As of 12:00 PM on Sunday 26 Oct 2014 (Local Time) from YMAY Reporting Station
Clear Clear  
Wind Chill: 79°   Ceiling: Unl
Heat Index: 79°   Visibility: 6mi
Dew Point: 52°   Wind: 12mph
Humidity: 39%   Direction: 270°W
Pressure: 29.85"   Gusts: NA
Location:  36.22°S, 147.53°E
Report Text: YMAY 260100Z AUTO 27010KT 9999 // NCD 26/11 Q1011
Loading
Personal Weather Stations






























Interactive Weather Map
Tropical Storm Tracking
New forecast layout! Learn more

10-Day Weather Forecast

Advertisements
Track Severe Weather on mobile